Time;durP1;ratioP1;P1;durP2;ratioP2;P2;SDS_P1;SDS_P2;PMS_P1;PMS_P2;Temp;Humidity;BMP_temperature;BMP_pressure;BME280_temperature;BME280_humidity;BME280_pressure;Samples;Min_cycle;Max_cycle;Signal;HPM_P1;HPM_P2
2021/12/19 00:01:54;;;;;;;11.23;8.90;;;;;;;;;;5080203;28;20191;-58
2021/12/19 00:09:31;;;;;;;11.33;10.10;;;;;;;;;;5088804;28;20211;-57
2021/12/19 00:11:58;;;;;;;12.53;10.50;;;;;;;;;;5089210;28;20183;-58
2021/12/19 00:14:30;;;;;;;11.33;9.40;;;;;;;;;;5094244;28;20183;-57
2021/12/19 00:16:56;;;;;;;11.80;10.27;;;;;;;;;;5070591;28;20240;-57
2021/12/19 00:19:22;;;;;;;11.57;9.80;;;;;;;;;;5090866;28;20179;-58
2021/12/19 00:21:48;;;;;;;11.27;9.77;;;;;;;;;;5091071;28;20183;-58
2021/12/19 00:24:24;;;;;;;12.67;10.80;;;;;;;;;;5091658;28;20180;-57
2021/12/19 00:26:50;;;;;;;13.93;11.23;;;;;;;;;;5081156;28;20184;-57
2021/12/19 00:29:20;;;;;;;10.70;9.10;;;;;;;;;;5071307;28;20595;-57
2021/12/19 00:31:49;;;;;;;13.63;10.83;;;;;;;;;;5072424;28;20180;-58
2021/12/19 00:34:16;;;;;;;11.73;10.00;;;;;;;;;;5074903;28;20172;-58
2021/12/19 00:36:43;;;;;;;10.30;9.00;;;;;;;;;;5102643;28;20175;-58
2021/12/19 00:39:09;;;;;;;11.33;10.13;;;;;;;;;;5053333;28;20188;-58
2021/12/19 00:41:35;;;;;;;12.23;10.17;;;;;;;;;;5069584;28;20192;-57
2021/12/19 00:44:13;;;;;;;12.67;9.80;;;;;;;;;;5082155;28;20516;-58
2021/12/19 00:46:52;;;;;;;12.00;10.30;;;;;;;;;;5072361;28;20206;-58
2021/12/19 00:49:20;;;;;;;12.00;9.90;;;;;;;;;;5081090;28;20613;-58
2021/12/19 00:51:47;;;;;;;12.60;10.30;;;;;;;;;;5070222;28;20178;-58
2021/12/19 00:54:13;;;;;;;11.30;9.57;;;;;;;;;;5081400;28;20186;-58
2021/12/19 00:56:42;;;;;;;12.63;10.70;;;;;;;;;;5082949;28;20202;-58
2021/12/19 00:59:08;;;;;;;12.13;10.17;;;;;;;;;;5103498;28;20291;-58
2021/12/19 01:01:36;;;;;;;10.60;9.50;;;;;;;;;;5075755;28;20187;-57
2021/12/19 01:04:03;;;;;;;11.90;8.80;;;;;;;;;;5074242;28;20230;-57
2021/12/19 01:06:30;;;;;;;11.27;9.70;;;;;;;;;;5080337;28;20281;-58
2021/12/19 01:08:57;;;;;;;11.90;9.57;;;;;;;;;;5106584;28;20191;-57
2021/12/19 01:11:32;;;;;;;12.20;9.53;;;;;;;;;;5092018;28;20214;-57
2021/12/19 01:13:59;;;;;;;11.77;9.73;;;;;;;;;;5082124;28;20178;-57
2021/12/19 01:16:25;;;;;;;11.00;9.77;;;;;;;;;;5078460;28;20183;-57
2021/12/19 01:18:51;;;;;;;12.97;10.20;;;;;;;;;;5076995;28;20180;-57
2021/12/19 01:21:18;;;;;;;12.20;9.30;;;;;;;;;;5105148;28;20620;-57
2021/12/19 01:23:48;;;;;;;10.43;9.30;;;;;;;;;;5070618;28;20270;-57
2021/12/19 01:26:14;;;;;;;11.47;9.87;;;;;;;;;;5077697;28;20206;-57
2021/12/19 01:28:43;;;;;;;10.73;8.97;;;;;;;;;;5086947;28;20179;-57
2021/12/19 01:31:11;;;;;;;11.10;9.90;;;;;;;;;;5095968;28;20244;-57
2021/12/19 01:33:38;;;;;;;10.93;8.83;;;;;;;;;;5070356;28;20583;-57
2021/12/19 01:36:04;;;;;;;13.47;9.50;;;;;;;;;;5072985;28;20180;-58
2021/12/19 01:38:31;;;;;;;11.20;9.40;;;;;;;;;;5083498;28;20168;-57
2021/12/19 01:40:57;;;;;;;12.77;9.27;;;;;;;;;;5071296;28;20223;-57
2021/12/19 01:43:27;;;;;;;14.00;9.73;;;;;;;;;;5097080;28;20532;-57
2021/12/19 01:45:54;;;;;;;12.63;9.83;;;;;;;;;;5075949;28;20648;-57
2021/12/19 01:48:21;;;;;;;12.80;9.93;;;;;;;;;;5098604;28;20179;-57
2021/12/19 01:50:50;;;;;;;11.37;9.17;;;;;;;;;;5089052;28;20210;-57
2021/12/19 01:53:17;;;;;;;11.37;9.57;;;;;;;;;;5081793;28;20591;-58
2021/12/19 01:55:45;;;;;;;11.23;8.90;;;;;;;;;;5075875;28;20202;-57
2021/12/19 01:58:12;;;;;;;12.57;9.90;;;;;;;;;;5096590;28;20563;-57
2021/12/19 02:00:44;;;;;;;9.83;8.80;;;;;;;;;;5090095;28;20184;-57
2021/12/19 02:03:15;;;;;;;11.93;9.07;;;;;;;;;;5073517;28;20195;-57
2021/12/19 02:05:41;;;;;;;12.20;9.77;;;;;;;;;;5080823;28;20514;-57
2021/12/19 02:08:08;;;;;;;10.93;9.10;;;;;;;;;;5081638;28;20175;-57
2021/12/19 02:10:34;;;;;;;11.30;9.10;;;;;;;;;;5076388;28;20199;-57
2021/12/19 02:13:02;;;;;;;11.43;8.87;;;;;;;;;;5072668;28;20172;-57
2021/12/19 02:15:28;;;;;;;9.87;8.63;;;;;;;;;;5100950;28;20188;-57
2021/12/19 02:17:56;;;;;;;11.50;8.67;;;;;;;;;;5092409;28;20179;-57
2021/12/19 02:20:23;;;;;;;11.60;8.73;;;;;;;;;;5098029;28;20179;-57
2021/12/19 02:22:49;;;;;;;12.37;9.07;;;;;;;;;;5069209;28;20172;-57
2021/12/19 02:25:16;;;;;;;11.43;8.87;;;;;;;;;;5072041;28;20563;-57
2021/12/19 02:27:48;;;;;;;11.97;9.10;;;;;;;;;;5072159;28;20282;-57
2021/12/19 02:30:14;;;;;;;10.93;9.37;;;;;;;;;;5083315;28;20670;-57
2021/12/19 02:32:41;;;;;;;11.97;8.83;;;;;;;;;;5074489;28;20225;-57
2021/12/19 02:35:16;;;;;;;11.20;8.67;;;;;;;;;;5099497;28;20175;-58
2021/12/19 02:48:44;;;;;;;12.80;9.17;;;;;;;;;;5089768;28;20241;-58
2021/12/19 02:51:13;;;;;;;11.03;9.13;;;;;;;;;;5085367;28;20539;-57
2021/12/19 02:53:44;;;;;;;12.70;9.53;;;;;;;;;;5091200;28;20179;-57
2021/12/19 02:56:15;;;;;;;12.73;9.53;;;;;;;;;;5069598;28;20658;-57
2021/12/19 02:58:42;;;;;;;11.03;8.70;;;;;;;;;;5085511;28;20253;-57
2021/12/19 03:01:14;;;;;;;12.30;9.20;;;;;;;;;;5085208;28;20434;-57
2021/12/19 03:03:41;;;;;;;11.07;8.83;;;;;;;;;;5075004;28;20176;-57
2021/12/19 03:06:07;;;;;;;12.30;9.23;;;;;;;;;;5086170;28;20643;-57
2021/12/19 03:08:35;;;;;;;10.73;8.90;;;;;;;;;;5085068;28;20203;-57
2021/12/19 03:18:45;;;;;;;12.60;9.37;;;;;;;;;;5081713;28;20718;-58
2021/12/19 03:21:17;;;;;;;12.87;9.73;;;;;;;;;;5087115;28;20183;-57
2021/12/19 03:23:43;;;;;;;11.30;9.13;;;;;;;;;;5083067;28;20255;-57
2021/12/19 03:26:09;;;;;;;11.47;9.93;;;;;;;;;;5085806;28;20183;-57
2021/12/19 03:28:36;;;;;;;11.03;9.43;;;;;;;;;;5083392;28;20184;-57
2021/12/19 03:31:02;;;;;;;14.17;9.47;;;;;;;;;;5084805;28;20249;-57
2021/12/19 03:33:35;;;;;;;12.20;9.20;;;;;;;;;;5080670;28;20171;-57
2021/12/19 03:36:02;;;;;;;11.03;9.43;;;;;;;;;;5092100;28;20191;-57
2021/12/19 03:38:28;;;;;;;11.87;9.27;;;;;;;;;;5071004;28;20517;-57
2021/12/19 03:43:53;;;;;;;13.10;9.70;;;;;;;;;;5055715;28;20192;-57
2021/12/19 03:46:20;;;;;;;11.70;9.50;;;;;;;;;;5080699;28;20176;-57
2021/12/19 03:48:46;;;;;;;11.37;9.60;;;;;;;;;;5084235;28;20180;-57
2021/12/19 03:51:12;;;;;;;11.43;9.70;;;;;;;;;;5066538;28;20574;-57
2021/12/19 03:53:39;;;;;;;12.23;9.17;;;;;;;;;;5044876;28;20641;-57
2021/12/19 03:56:06;;;;;;;12.97;9.63;;;;;;;;;;5065888;28;20196;-57
2021/12/19 03:58:32;;;;;;;13.07;9.57;;;;;;;;;;5065666;28;20184;-57
2021/12/19 04:01:01;;;;;;;11.20;9.73;;;;;;;;;;5064123;28;20176;-57
2021/12/19 04:03:30;;;;;;;14.27;10.23;;;;;;;;;;5046934;28;20185;-57
2021/12/19 04:05:56;;;;;;;12.30;10.27;;;;;;;;;;5049160;28;20275;-57
2021/12/19 04:08:23;;;;;;;12.37;9.57;;;;;;;;;;5063538;28;20552;-57
2021/12/19 04:10:49;;;;;;;11.67;9.13;;;;;;;;;;5066416;28;20241;-57
2021/12/19 04:13:17;;;;;;;13.20;10.07;;;;;;;;;;5046392;28;20177;-57
2021/12/19 04:15:49;;;;;;;11.17;8.97;;;;;;;;;;5048445;28;20188;-57
2021/12/19 04:18:18;;;;;;;11.30;9.33;;;;;;;;;;5063292;28;20662;-57
2021/12/19 04:20:44;;;;;;;11.83;9.43;;;;;;;;;;5064601;28;20176;-57
2021/12/19 04:23:10;;;;;;;13.73;9.80;;;;;;;;;;5065381;28;20173;-57
2021/12/19 04:25:40;;;;;;;10.90;9.03;;;;;;;;;;5064446;28;20241;-57
2021/12/19 04:28:10;;;;;;;13.47;10.43;;;;;;;;;;5040604;28;20185;-57
2021/12/19 04:30:36;;;;;;;11.33;8.40;;;;;;;;;;5049440;28;21008;-57
2021/12/19 04:33:11;;;;;;;10.70;8.77;;;;;;;;;;5050842;28;20182;-57
2021/12/19 04:35:40;;;;;;;12.13;8.87;;;;;;;;;;5046754;28;20172;-57
2021/12/19 04:41:05;;;;;;;11.93;9.93;;;;;;;;;;5066313;28;20177;-60
2021/12/19 04:52:09;;;;;;;12.77;8.93;;;;;;;;;;5069183;28;20217;-57
2021/12/19 04:55:00;;;;;;;11.60;8.87;;;;;;;;;;5073071;28;20555;-57
2021/12/19 04:57:41;;;;;;;12.73;8.73;;;;;;;;;;5052971;28;20196;-57
2021/12/19 05:00:12;;;;;;;14.70;9.17;;;;;;;;;;5058557;28;20595;-56
2021/12/19 05:02:56;;;;;;;14.03;8.70;;;;;;;;;;5072729;28;20506;-57
2021/12/19 05:16:24;;;;;;;12.07;8.83;;;;;;;;;;5070676;28;20183;-57
2021/12/19 05:18:52;;;;;;;15.50;7.83;;;;;;;;;;5072418;28;20172;-57
2021/12/19 05:21:24;;;;;;;12.27;8.50;;;;;;;;;;5072983;28;20177;-57
2021/12/19 05:26:20;;;;;;;11.40;7.20;;;;;;;;;;5076006;28;20521;-57
2021/12/19 05:28:48;;;;;;;9.80;6.93;;;;;;;;;;5057692;28;20683;-57
2021/12/19 05:31:14;;;;;;;11.20;7.50;;;;;;;;;;5052234;28;20219;-57
2021/12/19 05:33:40;;;;;;;9.40;6.90;;;;;;;;;;5069594;28;20173;-57
2021/12/19 05:45:11;;;;;;;12.83;7.23;;;;;;;;;;5069651;28;20589;-58
2021/12/19 05:47:00;;;;;;;9.63;6.47;;;;;;;;;;5065364;28;20191;-57
2021/12/19 05:49:26;;;;;;;9.57;7.23;;;;;;;;;;5053419;28;20223;-57
2021/12/19 05:51:55;;;;;;;13.27;7.07;;;;;;;;;;5070010;28;20639;-57
2021/12/19 05:54:24;;;;;;;10.87;7.63;;;;;;;;;;5068368;28;20209;-57
2021/12/19 05:56:54;;;;;;;11.23;6.53;;;;;;;;;;5067226;28;20196;-57
2021/12/19 05:59:20;;;;;;;11.07;7.57;;;;;;;;;;5071283;28;20177;-57
2021/12/19 06:01:47;;;;;;;10.67;6.63;;;;;;;;;;5071840;28;20659;-56
2021/12/19 06:04:13;;;;;;;10.50;7.00;;;;;;;;;;5055218;28;20226;-57
2021/12/19 06:06:45;;;;;;;12.00;7.33;;;;;;;;;;5067471;28;20655;-57
2021/12/19 06:09:11;;;;;;;14.03;7.27;;;;;;;;;;5050340;28;20275;-57
2021/12/19 06:11:40;;;;;;;12.23;6.33;;;;;;;;;;5068606;28;20662;-57
2021/12/19 06:14:07;;;;;;;10.87;6.50;;;;;;;;;;5047172;28;20183;-57
2021/12/19 06:16:38;;;;;;;11.13;7.27;;;;;;;;;;5068797;28;20171;-57
2021/12/19 06:19:05;;;;;;;12.20;6.63;;;;;;;;;;5067436;28;20171;-57
2021/12/19 06:21:31;;;;;;;9.47;6.50;;;;;;;;;;5050518;28;20662;-57
2021/12/19 06:23:58;;;;;;;12.53;7.93;;;;;;;;;;5049695;28;20222;-57
2021/12/19 06:26:27;;;;;;;10.53;6.77;;;;;;;;;;5051437;28;20276;-57
2021/12/19 06:28:53;;;;;;;12.07;7.50;;;;;;;;;;5049614;28;20200;-57
2021/12/19 06:31:20;;;;;;;9.67;6.43;;;;;;;;;;5065787;28;20709;-58
2021/12/19 06:33:46;;;;;;;10.27;7.17;;;;;;;;;;5049953;28;20268;-57
2021/12/19 06:36:12;;;;;;;10.70;7.67;;;;;;;;;;5072955;28;20177;-57
2021/12/19 06:38:38;;;;;;;11.63;8.17;;;;;;;;;;5069737;28;20540;-58
2021/12/19 06:41:10;;;;;;;13.43;8.17;;;;;;;;;;5067903;28;20184;-58
2021/12/19 06:43:37;;;;;;;14.00;8.70;;;;;;;;;;5065986;28;20255;-58
2021/12/19 06:46:04;;;;;;;12.80;9.07;;;;;;;;;;5062662;28;20176;-57
2021/12/19 06:48:30;;;;;;;13.07;9.13;;;;;;;;;;5068608;28;20180;-57
2021/12/19 06:50:57;;;;;;;13.87;8.40;;;;;;;;;;5079729;28;20272;-57
2021/12/19 06:53:23;;;;;;;14.03;9.20;;;;;;;;;;5067305;28;20676;-57
2021/12/19 06:55:53;;;;;;;13.37;8.77;;;;;;;;;;5066092;28;20180;-57
2021/12/19 06:58:19;;;;;;;13.33;8.53;;;;;;;;;;5049912;28;20568;-57
2021/12/19 07:00:49;;;;;;;12.37;8.57;;;;;;;;;;5067713;28;20715;-58
2021/12/19 07:03:16;;;;;;;10.43;7.40;;;;;;;;;;5067924;28;20185;-58
2021/12/19 07:05:42;;;;;;;13.17;8.87;;;;;;;;;;5069124;28;20714;-57
2021/12/19 07:08:12;;;;;;;12.37;7.60;;;;;;;;;;5071737;28;20191;-58
2021/12/19 07:10:38;;;;;;;12.17;8.80;;;;;;;;;;5064096;28;20212;-58
2021/12/19 07:13:04;;;;;;;12.30;8.20;;;;;;;;;;5065164;28;20540;-57
2021/12/19 07:15:30;;;;;;;11.43;8.00;;;;;;;;;;5066561;28;20185;-57
2021/12/19 07:18:02;;;;;;;10.93;7.83;;;;;;;;;;5065568;28;20173;-58
2021/12/19 07:20:28;;;;;;;12.17;7.73;;;;;;;;;;5065297;28;20176;-58
2021/12/19 07:22:54;;;;;;;13.17;8.50;;;;;;;;;;5065456;28;20184;-57
2021/12/19 07:25:24;;;;;;;13.50;7.80;;;;;;;;;;5065437;28;20707;-57
2021/12/19 07:27:50;;;;;;;11.00;7.13;;;;;;;;;;5064534;28;20181;-58
2021/12/19 07:30:17;;;;;;;11.93;7.50;;;;;;;;;;5063526;28;20204;-58
2021/12/19 07:32:43;;;;;;;9.43;7.27;;;;;;;;;;5065631;28;20176;-57
2021/12/19 07:35:10;;;;;;;12.30;7.57;;;;;;;;;;5066940;28;20180;-58
2021/12/19 07:37:37;;;;;;;10.27;7.07;;;;;;;;;;5064524;28;20230;-58
2021/12/19 07:40:14;;;;;;;10.67;7.50;;;;;;;;;;5062261;28;20208;-58
2021/12/19 07:42:40;;;;;;;11.73;7.80;;;;;;;;;;5064030;28;20590;-58
2021/12/19 07:45:10;;;;;;;11.37;7.50;;;;;;;;;;5063346;28;20195;-58
2021/12/19 07:47:39;;;;;;;10.37;7.70;;;;;;;;;;5063159;28;20180;-58
2021/12/19 07:50:09;;;;;;;10.47;7.60;;;;;;;;;;5067559;28;20219;-58
2021/12/19 07:52:35;;;;;;;11.03;7.23;;;;;;;;;;5083487;28;20182;-58
2021/12/19 07:55:01;;;;;;;9.67;6.03;;;;;;;;;;5071935;28;20634;-58
2021/12/19 07:57:37;;;;;;;10.20;7.07;;;;;;;;;;5091050;28;20202;-58
2021/12/19 08:00:08;;;;;;;8.67;6.87;;;;;;;;;;5062790;28;20180;-58
2021/12/19 08:02:34;;;;;;;7.93;6.37;;;;;;;;;;5086101;28;20602;-58
2021/12/19 08:05:04;;;;;;;10.50;7.43;;;;;;;;;;5070037;28;20194;-57
2021/12/19 08:07:30;;;;;;;10.47;6.83;;;;;;;;;;5084857;28;20559;-58
2021/12/19 08:10:12;;;;;;;8.73;6.53;;;;;;;;;;5083009;28;20210;-58
2021/12/19 08:12:40;;;;;;;9.17;6.97;;;;;;;;;;5087543;28;20184;-58
2021/12/19 08:15:07;;;;;;;8.57;6.63;;;;;;;;;;5084325;28;20192;-57
2021/12/19 08:17:33;;;;;;;9.60;6.90;;;;;;;;;;5054550;28;20646;-57
2021/12/19 08:20:03;;;;;;;9.37;6.60;;;;;;;;;;5086823;28;20543;-58
2021/12/19 08:22:31;;;;;;;8.20;6.90;;;;;;;;;;5085170;28;20194;-58
2021/12/19 08:25:00;;;;;;;9.33;6.63;;;;;;;;;;5068727;28;20183;-58
2021/12/19 08:27:27;;;;;;;14.20;6.67;;;;;;;;;;5070977;28;20191;-57
2021/12/19 08:29:54;;;;;;;7.77;5.77;;;;;;;;;;5068388;28;20200;-57
2021/12/19 08:32:21;;;;;;;7.80;5.90;;;;;;;;;;5086176;28;20184;-58
2021/12/19 08:34:48;;;;;;;7.40;5.80;;;;;;;;;;5055067;28;20176;-58
2021/12/19 08:37:15;;;;;;;10.90;6.43;;;;;;;;;;5072703;28;20172;-57
2021/12/19 08:39:42;;;;;;;11.13;6.87;;;;;;;;;;5088851;28;20248;-58
2021/12/19 08:42:09;;;;;;;7.23;5.57;;;;;;;;;;5071108;28;20560;-57
2021/12/19 08:44:35;;;;;;;8.90;6.00;;;;;;;;;;5088610;28;20210;-58
2021/12/19 08:47:02;;;;;;;9.17;6.13;;;;;;;;;;5089208;28;20184;-57
2021/12/19 08:49:28;;;;;;;9.23;5.90;;;;;;;;;;5063607;28;20303;-58
2021/12/19 08:51:57;;;;;;;8.40;5.97;;;;;;;;;;5067298;28;20173;-57
2021/12/19 08:54:26;;;;;;;8.17;6.23;;;;;;;;;;5048702;28;20192;-58
2021/12/19 08:56:55;;;;;;;9.27;6.07;;;;;;;;;;5063905;28;20866;-57
2021/12/19 08:59:24;;;;;;;7.33;6.07;;;;;;;;;;5040910;28;20177;-58
2021/12/19 09:01:51;;;;;;;7.57;5.37;;;;;;;;;;5048490;28;20808;-58
2021/12/19 09:04:21;;;;;;;8.17;5.73;;;;;;;;;;5044013;28;20177;-58
2021/12/19 09:06:47;;;;;;;7.67;5.53;;;;;;;;;;5046345;28;20227;-58
2021/12/19 09:09:20;;;;;;;9.83;6.17;;;;;;;;;;5046404;28;20183;-57
2021/12/19 09:11:46;;;;;;;7.13;5.77;;;;;;;;;;5045215;28;20307;-58
2021/12/19 09:14:12;;;;;;;9.83;6.50;;;;;;;;;;5063708;28;20430;-57
2021/12/19 09:16:39;;;;;;;8.33;6.40;;;;;;;;;;5039506;28;20181;-58
2021/12/19 09:19:05;;;;;;;7.67;6.00;;;;;;;;;;5042623;28;20173;-57
2021/12/19 09:21:32;;;;;;;8.00;5.60;;;;;;;;;;5045005;28;20178;-58
2021/12/19 09:23:58;;;;;;;7.40;5.70;;;;;;;;;;5070114;28;20230;-58
2021/12/19 09:26:31;;;;;;;9.43;6.47;;;;;;;;;;5061707;28;20600;-58
2021/12/19 09:28:57;;;;;;;7.07;5.43;;;;;;;;;;5064498;28;20173;-57
2021/12/19 09:31:24;;;;;;;9.43;6.97;;;;;;;;;;5045053;28;20208;-57
2021/12/19 09:33:55;;;;;;;7.97;6.07;;;;;;;;;;5062418;28;20181;-57
2021/12/19 09:36:21;;;;;;;7.27;5.60;;;;;;;;;;5049462;28;20188;-57
2021/12/19 09:38:48;;;;;;;9.27;6.20;;;;;;;;;;5049945;28;20172;-57
2021/12/19 09:41:17;;;;;;;7.13;5.67;;;;;;;;;;5050101;28;20234;-57
2021/12/19 09:43:44;;;;;;;9.53;5.73;;;;;;;;;;5060339;28;20188;-58
2021/12/19 09:46:15;;;;;;;8.03;5.73;;;;;;;;;;5042665;28;20181;-57
2021/12/19 09:48:45;;;;;;;8.70;5.87;;;;;;;;;;5063522;28;20234;-57
2021/12/19 09:51:13;;;;;;;7.00;5.43;;;;;;;;;;5080896;28;20756;-58
2021/12/19 09:53:40;;;;;;;8.20;5.60;;;;;;;;;;5044281;28;20673;-57
2021/12/19 09:56:06;;;;;;;6.87;5.00;;;;;;;;;;5069514;28;20722;-57
2021/12/19 09:58:33;;;;;;;8.33;5.67;;;;;;;;;;5050804;28;20513;-58
2021/12/19 10:01:05;;;;;;;7.20;5.67;;;;;;;;;;5068106;28;20226;-58
2021/12/19 10:03:31;;;;;;;7.03;5.33;;;;;;;;;;5050210;28;20184;-57
2021/12/19 10:06:16;;;;;;;6.77;5.53;;;;;;;;;;5050207;28;20651;-57
2021/12/19 10:08:43;;;;;;;7.50;5.00;;;;;;;;;;5075271;28;20184;-57
2021/12/19 10:11:30;;;;;;;8.33;5.97;;;;;;;;;;5048550;28;20546;-57
2021/12/19 10:14:00;;;;;;;5.87;4.97;;;;;;;;;;5048978;28;20195;-57
2021/12/19 10:16:31;;;;;;;7.03;5.17;;;;;;;;;;5046902;28;20559;-56
2021/12/19 10:19:03;;;;;;;6.30;4.53;;;;;;;;;;5065052;28;20241;-58
2021/12/19 10:21:37;;;;;;;5.27;4.60;;;;;;;;;;5064448;28;20184;-58
2021/12/19 10:24:03;;;;;;;6.13;4.57;;;;;;;;;;5049567;28;20180;-57
2021/12/19 10:26:43;;;;;;;7.83;4.63;;;;;;;;;;5067605;28;20172;-57
2021/12/19 10:29:13;;;;;;;5.90;4.73;;;;;;;;;;5046865;28;20215;-57
2021/12/19 10:31:39;;;;;;;6.63;4.83;;;;;;;;;;5046421;28;20180;-56
2021/12/19 10:34:38;;;;;;;4.73;3.83;;;;;;;;;;5044874;28;20189;-57
2021/12/19 10:37:05;;;;;;;5.87;4.73;;;;;;;;;;5018964;28;20192;-57
2021/12/19 10:39:42;;;;;;;5.40;4.30;;;;;;;;;;5063868;28;20214;-57
2021/12/19 10:42:11;;;;;;;5.13;4.17;;;;;;;;;;5046375;28;20215;-58
2021/12/19 10:47:27;;;;;;;5.87;4.70;;;;;;;;;;5065525;28;20713;-58
2021/12/19 10:49:57;;;;;;;5.17;4.27;;;;;;;;;;5047114;28;20227;-56
2021/12/19 10:52:53;;;;;;;6.10;4.40;;;;;;;;;;5044724;28;20817;-57
2021/12/19 10:55:19;;;;;;;4.33;3.93;;;;;;;;;;5025499;28;20517;-58
2021/12/19 10:57:49;;;;;;;7.00;4.50;;;;;;;;;;5045475;28;21023;-58
2021/12/19 11:00:28;;;;;;;5.43;4.50;;;;;;;;;;5044434;28;20525;-57
2021/12/19 11:02:58;;;;;;;6.27;4.37;;;;;;;;;;5046552;28;20196;-57
2021/12/19 11:05:37;;;;;;;4.90;4.03;;;;;;;;;;5037665;28;20674;-57
2021/12/19 11:08:04;;;;;;;6.33;4.03;;;;;;;;;;5022746;28;20245;-57
2021/12/19 11:10:34;;;;;;;4.90;4.03;;;;;;;;;;5026639;28;20676;-57
2021/12/19 11:13:11;;;;;;;4.63;3.93;;;;;;;;;;5062706;28;20230;-57
2021/12/19 11:15:37;;;;;;;4.93;4.33;;;;;;;;;;5060371;28;20180;-57
2021/12/19 11:18:04;;;;;;;4.43;3.97;;;;;;;;;;5063065;28;20647;-57
2021/12/19 11:20:30;;;;;;;5.33;4.30;;;;;;;;;;5063597;28;20697;-56
2021/12/19 11:22:57;;;;;;;4.47;3.90;;;;;;;;;;5038907;28;20184;-57
2021/12/19 11:25:24;;;;;;;4.00;3.60;;;;;;;;;;5047112;28;20190;-57
2021/12/19 11:27:50;;;;;;;4.80;3.30;;;;;;;;;;5043018;28;20212;-56
2021/12/19 11:30:18;;;;;;;5.50;3.77;;;;;;;;;;5065218;28;20351;-57
2021/12/19 11:32:52;;;;;;;5.80;3.63;;;;;;;;;;5043192;28;20233;-58
2021/12/19 11:35:21;;;;;;;3.27;2.83;;;;;;;;;;5042847;28;20342;-57
2021/12/19 11:38:08;;;;;;;4.10;3.07;;;;;;;;;;5043441;28;20189;-57
2021/12/19 11:40:36;;;;;;;3.10;2.60;;;;;;;;;;5042847;28;20202;-58
2021/12/19 11:43:04;;;;;;;2.93;2.57;;;;;;;;;;5063618;28;20200;-58
2021/12/19 11:45:38;;;;;;;4.60;2.83;;;;;;;;;;5038105;28;20186;-58
2021/12/19 11:48:34;;;;;;;2.60;2.40;;;;;;;;;;5043365;28;20184;-57
2021/12/19 11:51:02;;;;;;;2.87;2.13;;;;;;;;;;5040195;28;20220;-57
2021/12/19 11:53:41;;;;;;;2.07;1.87;;;;;;;;;;5041349;28;20229;-57
2021/12/19 11:56:10;;;;;;;2.20;2.00;;;;;;;;;;5065160;28;20611;-58
2021/12/19 11:58:45;;;;;;;3.07;2.10;;;;;;;;;;5046621;28;20753;-57
2021/12/19 12:01:33;;;;;;;2.50;1.73;;;;;;;;;;5045426;28;20203;-58
2021/12/19 12:04:14;;;;;;;1.87;1.70;;;;;;;;;;5046319;28;20243;-57
2021/12/19 12:06:41;;;;;;;1.67;1.57;;;;;;;;;;5045055;28;20183;-57
2021/12/19 12:09:26;;;;;;;3.23;2.03;;;;;;;;;;5060688;28;20291;-57
2021/12/19 12:12:07;;;;;;;1.60;1.50;;;;;;;;;;5047188;28;20664;-57
2021/12/19 12:14:38;;;;;;;3.60;1.97;;;;;;;;;;5060868;28;20894;-58
2021/12/19 12:17:09;;;;;;;2.30;1.70;;;;;;;;;;5040402;28;20267;-58
2021/12/19 12:19:49;;;;;;;2.10;1.50;;;;;;;;;;5039591;28;20172;-57
2021/12/19 12:22:36;;;;;;;1.57;1.43;;;;;;;;;;5060977;28;20181;-57
2021/12/19 12:25:09;;;;;;;1.90;1.67;;;;;;;;;;5059568;28;20199;-58
2021/12/19 12:27:56;;;;;;;2.70;1.60;;;;;;;;;;5059807;28;20181;-57
2021/12/19 12:30:30;;;;;;;1.67;1.57;;;;;;;;;;5035856;28;20286;-58
2021/12/19 12:32:58;;;;;;;1.60;1.50;;;;;;;;;;5057679;28;20184;-57
2021/12/19 12:35:25;;;;;;;1.50;1.40;;;;;;;;;;5039967;28;20192;-57
2021/12/19 12:37:54;;;;;;;1.60;1.40;;;;;;;;;;5040355;28;20181;-57
2021/12/19 12:40:31;;;;;;;1.60;1.50;;;;;;;;;;5061151;28;20271;-57
2021/12/19 12:43:10;;;;;;;1.60;1.50;;;;;;;;;;5039748;28;20651;-57
2021/12/19 12:45:54;;;;;;;2.43;1.50;;;;;;;;;;5037598;28;20242;-57
2021/12/19 12:48:26;;;;;;;2.73;2.07;;;;;;;;;;5041794;28;20191;-57
2021/12/19 12:50:53;;;;;;;3.43;1.67;;;;;;;;;;5052927;28;20289;-57
2021/12/19 12:53:39;;;;;;;1.90;1.60;;;;;;;;;;5061406;28;20206;-57
2021/12/19 12:56:10;;;;;;;1.77;1.60;;;;;;;;;;5082700;28;20211;-58
2021/12/19 12:58:38;;;;;;;1.63;1.53;;;;;;;;;;5064016;28;20172;-57
2021/12/19 13:01:14;;;;;;;1.83;1.53;;;;;;;;;;5080342;28;20176;-57
2021/12/19 13:04:01;;;;;;;1.53;1.43;;;;;;;;;;5083418;28;20300;-57
2021/12/19 13:06:44;;;;;;;1.63;1.47;;;;;;;;;;5081005;28;20179;-57
2021/12/19 13:09:17;;;;;;;1.90;1.50;;;;;;;;;;5064902;28;20179;-57
2021/12/19 13:11:47;;;;;;;3.10;1.73;;;;;;;;;;5059636;28;20175;-57
2021/12/19 13:14:23;;;;;;;2.20;1.70;;;;;;;;;;5059411;28;20560;-57
2021/12/19 13:16:52;;;;;;;2.47;1.60;;;;;;;;;;5083471;28;20180;-58
2021/12/19 13:19:37;;;;;;;1.87;1.50;;;;;;;;;;5085176;28;20233;-57
2021/12/19 13:22:07;;;;;;;1.47;1.37;;;;;;;;;;5076087;28;20259;-57
2021/12/19 13:24:35;;;;;;;2.17;1.80;;;;;;;;;;5061694;28;20172;-56
2021/12/19 13:27:05;;;;;;;2.33;1.63;;;;;;;;;;5077880;28;20183;-57
2021/12/19 13:29:31;;;;;;;2.10;1.90;;;;;;;;;;5058833;28;20258;-57
2021/12/19 13:32:18;;;;;;;2.20;1.73;;;;;;;;;;5086701;28;20567;-57
2021/12/19 13:34:48;;;;;;;2.23;1.80;;;;;;;;;;5080946;28;20568;-57
2021/12/19 13:37:18;;;;;;;1.97;1.83;;;;;;;;;;5061060;28;20655;-57
2021/12/19 13:40:00;;;;;;;3.10;1.97;;;;;;;;;;5076976;28;20168;-57
2021/12/19 13:42:45;;;;;;;2.57;2.23;;;;;;;;;;5044934;28;20726;-57
2021/12/19 13:45:22;;;;;;;2.87;2.13;;;;;;;;;;5076684;28;20206;-56
2021/12/19 13:47:48;;;;;;;5.30;2.00;;;;;;;;;;5081608;28;20176;-57
2021/12/19 13:50:15;;;;;;;3.27;2.43;;;;;;;;;;5077694;28;20345;-58
2021/12/19 13:52:41;;;;;;;3.70;2.60;;;;;;;;;;5063262;28;20726;-57
2021/12/19 13:55:09;;;;;;;4.40;2.37;;;;;;;;;;5041250;28;20165;-57
2021/12/19 13:57:36;;;;;;;3.57;2.30;;;;;;;;;;5060140;28;20208;-57
2021/12/19 14:00:07;;;;;;;2.80;2.57;;;;;;;;;;5059634;28;20563;-57
2021/12/19 14:02:37;;;;;;;3.03;2.13;;;;;;;;;;5042500;28;20177;-58
2021/12/19 14:05:03;;;;;;;3.77;2.53;;;;;;;;;;5060764;28;20559;-57
2021/12/19 14:07:30;;;;;;;3.00;2.43;;;;;;;;;;5037971;28;20191;-58
2021/12/19 14:10:02;;;;;;;4.77;3.03;;;;;;;;;;5040756;28;20204;-57
2021/12/19 14:12:57;;;;;;;5.63;2.87;;;;;;;;;;5041585;28;20276;-57
2021/12/19 14:15:19;;;;;;;4.23;2.83;;;;;;;;;;5056926;28;20180;-57
2021/12/19 14:17:45;;;;;;;4.57;2.70;;;;;;;;;;5058177;28;20173;-57
2021/12/19 14:20:11;;;;;;;3.60;2.30;;;;;;;;;;5040063;28;20643;-57
2021/12/19 14:22:38;;;;;;;4.77;2.70;;;;;;;;;;5057092;28;20185;-57
2021/12/19 14:25:07;;;;;;;5.43;2.93;;;;;;;;;;5039670;28;20183;-57
2021/12/19 14:27:40;;;;;;;3.40;2.80;;;;;;;;;;5061306;28;20197;-57
2021/12/19 14:30:15;;;;;;;5.93;2.70;;;;;;;;;;5044631;28;20212;-57
2021/12/19 14:32:51;;;;;;;5.93;3.00;;;;;;;;;;5046910;28;20183;-57
2021/12/19 14:35:20;;;;;;;4.83;2.60;;;;;;;;;;5043122;28;20180;-57
2021/12/19 14:37:48;;;;;;;4.27;2.77;;;;;;;;;;5040632;28;20239;-57
2021/12/19 14:40:21;;;;;;;4.57;2.60;;;;;;;;;;5060888;28;20234;-57
2021/12/19 14:43:02;;;;;;;3.90;2.40;;;;;;;;;;5048956;28;20212;-57
2021/12/19 14:45:38;;;;;;;3.23;2.50;;;;;;;;;;5064124;28;20176;-57
2021/12/19 14:48:17;;;;;;;3.23;2.60;;;;;;;;;;5042825;28;20694;-57
2021/12/19 14:50:54;;;;;;;3.47;2.23;;;;;;;;;;5057976;28;20234;-57
2021/12/19 14:53:23;;;;;;;3.43;2.67;;;;;;;;;;5079874;28;20259;-57
2021/12/19 14:55:54;;;;;;;4.57;2.70;;;;;;;;;;5080607;28;20168;-57
2021/12/19 14:58:25;;;;;;;5.17;2.20;;;;;;;;;;5057520;28;21001;-56
2021/12/19 15:01:04;;;;;;;3.30;2.70;;;;;;;;;;5046267;28;20263;-57
2021/12/19 15:03:32;;;;;;;2.57;2.33;;;;;;;;;;5060597;28;20706;-57
2021/12/19 15:06:00;;;;;;;2.83;2.30;;;;;;;;;;5078907;28;20168;-57
2021/12/19 15:08:28;;;;;;;3.50;2.50;;;;;;;;;;5065953;28;20600;-57
2021/12/19 15:11:01;;;;;;;4.17;2.83;;;;;;;;;;5065917;28;20231;-57
2021/12/19 15:13:30;;;;;;;3.57;2.40;;;;;;;;;;5062461;28;20172;-57
2021/12/19 15:15:56;;;;;;;5.20;2.50;;;;;;;;;;5080299;28;20172;-57
2021/12/19 15:18:26;;;;;;;3.17;2.30;;;;;;;;;;5061810;28;20200;-57
2021/12/19 15:20:53;;;;;;;3.33;2.10;;;;;;;;;;5064793;28;20180;-57
2021/12/19 15:23:19;;;;;;;4.50;2.67;;;;;;;;;;5063630;28;20184;-57
2021/12/19 15:25:46;;;;;;;3.37;2.17;;;;;;;;;;5080095;28;20230;-57
2021/12/19 15:28:16;;;;;;;4.07;3.07;;;;;;;;;;5061338;28;20176;-57
2021/12/19 15:30:42;;;;;;;3.23;2.60;;;;;;;;;;5073941;28;20223;-57
2021/12/19 15:33:16;;;;;;;4.57;2.33;;;;;;;;;;5062400;28;20190;-57
2021/12/19 15:35:43;;;;;;;3.07;2.77;;;;;;;;;;5065489;28;20175;-58
2021/12/19 15:38:12;;;;;;;7.60;2.80;;;;;;;;;;5047909;28;20183;-57
2021/12/19 15:40:39;;;;;;;3.37;2.60;;;;;;;;;;5065422;28;20645;-57
2021/12/19 15:43:05;;;;;;;3.93;2.23;;;;;;;;;;5082621;28;20484;-57
2021/12/19 15:45:32;;;;;;;3.00;2.70;;;;;;;;;;5081482;28;20172;-57
2021/12/19 15:47:59;;;;;;;3.10;2.73;;;;;;;;;;5081874;28;20180;-57
2021/12/19 15:50:28;;;;;;;2.97;2.50;;;;;;;;;;5055944;28;20235;-57
2021/12/19 15:52:54;;;;;;;4.50;2.67;;;;;;;;;;5059805;28;20188;-57
2021/12/19 15:55:21;;;;;;;4.13;2.70;;;;;;;;;;5046501;28;20216;-57